Time;durP1;ratioP1;P1;durP2;ratioP2;P2;SDS_P1;SDS_P2;PMS_P1;PMS_P2;Temp;Humidity;BMP_temperature;BMP_pressure;BME280_temperature;BME280_humidity;BME280_pressure;Samples;Min_cycle;Max_cycle;Signal;HPM_P1;HPM_P2
2023/07/31 00:01:20;;;;;;;1.63;1.52;;;14.20;99.90;;;;;;5039327;28;20036;-40
2023/07/31 00:03:46;;;;;;;6.82;1.77;;;14.20;99.90;;;;;;5042152;28;20029;-40
2023/07/31 00:06:12;;;;;;;2.70;1.50;;;14.20;99.90;;;;;;5043440;28;20029;-41
2023/07/31 00:08:38;;;;;;;3.35;1.83;;;14.30;99.90;;;;;;5040469;28;20100;-40
2023/07/31 00:11:03;;;;;;;2.67;1.83;;;14.30;99.90;;;;;;5043504;28;20795;-40
2023/07/31 00:13:29;;;;;;;1.90;1.70;;;14.30;99.90;;;;;;5040961;28;20579;-40
2023/07/31 00:15:55;;;;;;;2.70;1.60;;;14.30;99.90;;;;;;5029601;28;20556;-38
2023/07/31 00:18:20;;;;;;;3.92;1.42;;;14.30;99.90;;;;;;5043389;28;20540;-30
2023/07/31 00:20:46;;;;;;;2.25;1.30;;;14.40;99.90;;;;;;5043036;28;20029;-32
2023/07/31 00:23:12;;;;;;;1.80;1.30;;;14.30;99.90;;;;;;5046813;28;20086;-31
2023/07/31 00:25:37;;;;;;;1.40;1.30;;;14.20;99.90;;;;;;5044420;28;20071;-30
2023/07/31 00:28:03;;;;;;;3.25;1.60;;;14.10;99.90;;;;;;5039433;28;20413;-32
2023/07/31 00:30:28;;;;;;;4.75;1.48;;;14.10;99.90;;;;;;5042253;28;20086;-35
2023/07/31 00:32:54;;;;;;;1.70;1.60;;;14.10;99.90;;;;;;5040610;28;20064;-30
2023/07/31 00:35:20;;;;;;;1.70;1.60;;;14.00;99.90;;;;;;5043502;28;20104;-31
2023/07/31 00:37:45;;;;;;;1.83;1.40;;;14.00;99.90;;;;;;5045476;28;20060;-31
2023/07/31 00:40:11;;;;;;;2.47;1.70;;;14.00;99.90;;;;;;5039990;28;20029;-30
2023/07/31 00:42:36;;;;;;;2.63;1.92;;;14.00;99.90;;;;;;5041614;28;20044;-31
2023/07/31 00:45:02;;;;;;;3.38;1.60;;;14.00;99.90;;;;;;5042504;28;20029;-32
2023/07/31 00:47:28;;;;;;;3.38;1.90;;;14.00;99.90;;;;;;5046703;28;20029;-31
2023/07/31 00:49:54;;;;;;;3.25;1.63;;;14.00;99.90;;;;;;5040937;28;20107;-32
2023/07/31 00:52:20;;;;;;;8.82;1.73;;;13.90;99.90;;;;;;5039648;28;20029;-32
2023/07/31 00:54:46;;;;;;;2.63;1.42;;;13.80;99.90;;;;;;5037558;28;20481;-30
2023/07/31 00:57:12;;;;;;;2.15;1.50;;;13.90;99.90;;;;;;5041762;28;20116;-30
2023/07/31 00:59:37;;;;;;;2.20;1.30;;;13.90;99.90;;;;;;5044816;28;20103;-30
2023/07/31 01:02:04;;;;;;;2.67;1.60;;;13.90;99.90;;;;;;5043617;28;20036;-32
2023/07/31 01:04:30;;;;;;;2.40;1.60;;;13.90;99.90;;;;;;5043554;28;20063;-31
2023/07/31 01:07:04;;;;;;;4.68;1.75;;;13.90;99.90;;;;;;5042253;28;20017;-31
2023/07/31 01:09:52;;;;;;;1.40;1.30;;;13.90;99.90;;;;;;5046893;28;20017;-31
2023/07/31 01:12:20;;;;;;;3.58;1.30;;;13.80;99.90;;;;;;5040376;28;20033;-30
2023/07/31 01:15:01;;;;;;;2.90;1.48;;;13.80;99.90;;;;;;5038613;28;20037;-31
2023/07/31 01:17:27;;;;;;;1.38;1.27;;;13.80;99.90;;;;;;5042055;28;20025;-32
2023/07/31 01:19:55;;;;;;;2.03;1.88;;;13.70;99.90;;;;;;5040587;28;20107;-34
2023/07/31 01:22:35;;;;;;;;;;;13.60;99.90;;;;;;5043622;28;20025;-31
2023/07/31 01:25:32;;;;;;;2.40;1.60;;;13.70;99.90;;;;;;5041736;28;19935;-30
2023/07/31 01:28:07;;;;;;;2.50;1.70;;;13.60;99.90;;;;;;5042238;28;20105;-30
2023/07/31 01:30:37;;;;;;;2.42;1.65;;;13.60;99.90;;;;;;5036192;28;20029;-31
2023/07/31 01:33:07;;;;;;;1.52;1.30;;;13.60;99.90;;;;;;5040931;28;20040;-32
2023/07/31 01:35:37;;;;;;;1.70;1.60;;;13.40;99.90;;;;;;5041783;28;20033;-30
2023/07/31 01:38:04;;;;;;;1.75;1.40;;;13.30;99.90;;;;;;5043441;28;20120;-35
2023/07/31 01:40:30;;;;;;;2.38;1.55;;;13.30;99.90;;;;;;5037205;28;20060;-31
2023/07/31 01:42:55;;;;;;;1.50;1.40;;;13.30;99.90;;;;;;5045526;28;20108;-35
2023/07/31 01:45:21;;;;;;;4.30;1.77;;;13.30;99.90;;;;;;5039570;28;20033;-30
2023/07/31 01:47:47;;;;;;;2.08;1.63;;;13.30;99.90;;;;;;5039059;28;20116;-31
2023/07/31 01:50:12;;;;;;;1.75;1.40;;;13.20;99.90;;;;;;5027978;28;20424;-30
2023/07/31 01:52:38;;;;;;;3.38;1.55;;;13.30;99.90;;;;;;5028394;28;20530;-31
2023/07/31 01:55:04;;;;;;;2.53;1.38;;;13.30;99.90;;;;;;5041445;28;20021;-33
2023/07/31 01:57:29;;;;;;;2.00;1.90;;;13.40;99.90;;;;;;5043801;28;20060;-31
2023/07/31 01:59:55;;;;;;;3.05;1.40;;;13.40;99.90;;;;;;5041315;28;20017;-32
2023/07/31 02:02:23;;;;;;;2.47;1.67;;;13.40;99.90;;;;;;5036293;28;20033;-30
2023/07/31 02:04:48;;;;;;;2.00;1.77;;;13.40;99.90;;;;;;5043005;28;20029;-30
2023/07/31 02:07:14;;;;;;;1.80;1.70;;;13.30;99.90;;;;;;5042062;28;20082;-33
2023/07/31 02:09:40;;;;;;;2.53;1.60;;;13.20;99.90;;;;;;5039627;28;20056;-31
2023/07/31 02:12:08;;;;;;;1.95;1.63;;;13.20;99.90;;;;;;5042141;28;20036;-32
2023/07/31 02:14:34;;;;;;;1.98;1.88;;;13.10;99.90;;;;;;5043726;28;20038;-30
2023/07/31 02:16:59;;;;;;;1.95;1.33;;;13.20;99.90;;;;;;5039090;28;20499;-31
2023/07/31 02:19:25;;;;;;;3.67;1.85;;;13.10;99.90;;;;;;5040240;28;20021;-40
2023/07/31 02:21:51;;;;;;;2.13;1.60;;;13.00;99.90;;;;;;5036395;28;20456;-39
2023/07/31 02:24:16;;;;;;;1.80;1.70;;;12.90;99.90;;;;;;5034915;28;20432;-40
2023/07/31 02:26:42;;;;;;;3.33;1.77;;;12.90;99.90;;;;;;5043267;28;20036;-39
2023/07/31 02:29:08;;;;;;;3.53;1.88;;;12.80;99.90;;;;;;5045169;28;20060;-41
2023/07/31 02:31:34;;;;;;;2.30;1.52;;;12.70;99.90;;;;;;5038280;28;20124;-37
2023/07/31 02:33:59;;;;;;;1.38;1.27;;;12.70;99.90;;;;;;5034964;28;20112;-35
2023/07/31 02:36:25;;;;;;;1.60;1.50;;;12.70;99.90;;;;;;5041559;28;20091;-34
2023/07/31 02:38:50;;;;;;;1.95;1.42;;;12.80;99.90;;;;;;5041248;28;20380;-41
2023/07/31 02:41:16;;;;;;;4.95;1.80;;;12.80;99.90;;;;;;5044547;28;20064;-39
2023/07/31 02:43:42;;;;;;;1.67;1.50;;;12.80;99.90;;;;;;5042291;28;20054;-40
2023/07/31 02:46:07;;;;;;;2.42;1.60;;;12.80;99.90;;;;;;5036301;28;20033;-41
2023/07/31 02:48:33;;;;;;;2.20;1.60;;;12.80;99.90;;;;;;5043383;28;20019;-40
2023/07/31 02:50:59;;;;;;;4.07;1.65;;;12.80;99.90;;;;;;5038378;28;20025;-39
2023/07/31 02:53:24;;;;;;;2.53;1.70;;;12.80;99.90;;;;;;5040212;28;20025;-39
2023/07/31 02:55:50;;;;;;;2.17;1.70;;;12.80;99.90;;;;;;5038920;28;20091;-40
2023/07/31 02:58:15;;;;;;;2.55;1.92;;;12.70;99.90;;;;;;5042150;28;20514;-41
2023/07/31 03:00:44;;;;;;;1.83;1.67;;;12.80;99.90;;;;;;5040154;28;20602;-40
2023/07/31 03:03:10;;;;;;;3.60;1.40;;;12.80;99.90;;;;;;5037365;28;20037;-39
2023/07/31 03:05:36;;;;;;;1.50;1.40;;;12.80;99.90;;;;;;5032974;28;20035;-38
2023/07/31 03:08:01;;;;;;;2.90;1.35;;;12.80;99.90;;;;;;5036101;28;20029;-37
2023/07/31 03:10:27;;;;;;;1.92;1.55;;;12.70;99.90;;;;;;5041055;28;20386;-41
2023/07/31 03:12:53;;;;;;;1.65;1.50;;;12.70;99.90;;;;;;5035746;28;20025;-40
2023/07/31 03:15:18;;;;;;;2.75;1.67;;;12.70;99.90;;;;;;5040273;28;20037;-38
2023/07/31 03:17:44;;;;;;;2.75;1.48;;;12.70;99.90;;;;;;5038746;28;20056;-40
2023/07/31 03:20:10;;;;;;;4.85;1.73;;;12.70;99.90;;;;;;5035188;28;20555;-38
2023/07/31 03:22:35;;;;;;;1.63;1.40;;;12.70;99.90;;;;;;5040536;28;20028;-37
2023/07/31 03:25:02;;;;;;;2.63;2.08;;;12.60;99.90;;;;;;5032360;28;20033;-39
2023/07/31 03:27:28;;;;;;;3.63;1.48;;;12.60;99.90;;;;;;5030272;28;20107;-41
2023/07/31 03:29:53;;;;;;;3.13;1.40;;;12.70;99.90;;;;;;5039343;28;20088;-39
2023/07/31 03:32:19;;;;;;;2.08;1.58;;;12.70;99.90;;;;;;5041184;28;20033;-40
2023/07/31 03:34:44;;;;;;;2.08;1.50;;;12.80;99.90;;;;;;5042504;28;20032;-40
2023/07/31 03:37:10;;;;;;;1.88;1.40;;;12.70;99.90;;;;;;5041573;28;20784;-34
2023/07/31 03:39:35;;;;;;;1.67;1.40;;;12.60;99.90;;;;;;5046216;28;20108;-35
2023/07/31 03:42:01;;;;;;;1.85;1.23;;;12.40;99.90;;;;;;5039968;28;20037;-38
2023/07/31 03:44:27;;;;;;;2.63;1.63;;;12.50;99.90;;;;;;5039056;28;20539;-41
2023/07/31 03:46:52;;;;;;;2.55;1.67;;;12.50;99.90;;;;;;5045519;28;20041;-41
2023/07/31 03:49:18;;;;;;;1.60;1.50;;;12.50;99.90;;;;;;5045368;28;20137;-40
2023/07/31 03:51:44;;;;;;;1.85;1.48;;;12.50;99.90;;;;;;5043210;28;20070;-38
2023/07/31 03:54:10;;;;;;;6.43;2.10;;;12.50;99.90;;;;;;5041440;28;20079;-40
2023/07/31 03:56:35;;;;;;;2.45;2.08;;;12.50;99.90;;;;;;5044931;28;20521;-40
2023/07/31 03:59:01;;;;;;;4.57;1.80;;;12.50;99.90;;;;;;5042895;28;20024;-41
2023/07/31 04:01:27;;;;;;;2.63;1.80;;;12.50;99.90;;;;;;5044160;28;20458;-40
2023/07/31 04:03:52;;;;;;;3.78;1.55;;;12.50;99.90;;;;;;5042838;28;20026;-40
2023/07/31 04:06:18;;;;;;;2.35;1.67;;;12.40;99.90;;;;;;5043289;28;21275;-38
2023/07/31 04:08:45;;;;;;;2.72;1.88;;;12.50;99.90;;;;;;5044057;28;20538;-39
2023/07/31 04:11:11;;;;;;;3.13;1.48;;;12.50;99.90;;;;;;5042576;28;20077;-40
2023/07/31 04:13:37;;;;;;;3.22;1.60;;;12.60;99.90;;;;;;5043677;28;20033;-39
2023/07/31 04:16:02;;;;;;;2.95;1.65;;;12.60;99.90;;;;;;5042427;28;20022;-35
2023/07/31 04:18:30;;;;;;;2.33;1.60;;;12.60;99.90;;;;;;5044344;28;20128;-39
2023/07/31 04:20:56;;;;;;;4.05;1.50;;;12.70;99.90;;;;;;5037723;28;20037;-41
2023/07/31 04:23:22;;;;;;;1.70;1.50;;;12.70;99.90;;;;;;5045922;28;20402;-37
2023/07/31 04:25:47;;;;;;;3.22;2.08;;;12.70;99.90;;;;;;5041201;28;20104;-39
2023/07/31 04:28:13;;;;;;;2.08;1.55;;;12.80;99.90;;;;;;5041773;28;20538;-41
2023/07/31 04:30:39;;;;;;;2.88;2.05;;;12.80;99.90;;;;;;5041279;28;20445;-40
2023/07/31 04:33:04;;;;;;;4.13;1.80;;;12.80;99.90;;;;;;5040578;28;20044;-40
2023/07/31 04:35:30;;;;;;;3.08;1.65;;;12.70;99.90;;;;;;5041693;28;20421;-38
2023/07/31 04:37:55;;;;;;;2.47;1.58;;;12.70;99.90;;;;;;5038562;28;20052;-40
2023/07/31 04:40:21;;;;;;;1.95;1.75;;;12.80;99.90;;;;;;5046429;28;20025;-40
2023/07/31 04:42:47;;;;;;;2.53;2.33;;;12.90;99.90;;;;;;5040923;28;20397;-38
2023/07/31 04:45:12;;;;;;;2.03;1.65;;;13.00;99.90;;;;;;5044736;28;20025;-40
2023/07/31 04:47:38;;;;;;;2.03;1.70;;;13.10;99.90;;;;;;5041828;28;20033;-41
2023/07/31 04:50:04;;;;;;;3.38;2.05;;;13.10;99.90;;;;;;5037343;28;20025;-40
2023/07/31 04:52:30;;;;;;;2.30;1.98;;;13.20;99.90;;;;;;5042363;28;20552;-38
2023/07/31 04:54:55;;;;;;;2.85;2.00;;;13.20;99.90;;;;;;5038847;28;20028;-38
2023/07/31 04:57:21;;;;;;;3.70;1.80;;;13.30;99.90;;;;;;5044574;28;20521;-41
2023/07/31 04:59:46;;;;;;;2.72;2.20;;;13.30;99.90;;;;;;5045595;28;20493;-38
2023/07/31 05:02:13;;;;;;;2.53;1.85;;;13.40;99.90;;;;;;5040204;28;20061;-40
2023/07/31 05:04:38;;;;;;;2.92;2.03;;;13.40;99.90;;;;;;5043518;28;20028;-41
2023/07/31 05:07:04;;;;;;;1.98;1.88;;;13.50;99.90;;;;;;5043401;28;20025;-38
2023/07/31 05:09:30;;;;;;;3.53;2.08;;;13.50;99.90;;;;;;5044293;28;20355;-40
2023/07/31 05:11:55;;;;;;;2.50;2.30;;;13.50;99.90;;;;;;5037089;28;20440;-38
2023/07/31 05:14:21;;;;;;;4.22;2.22;;;13.50;99.90;;;;;;5043397;28;20061;-38
2023/07/31 05:16:47;;;;;;;2.90;2.40;;;13.60;99.90;;;;;;5041109;28;20037;-39
2023/07/31 05:19:12;;;;;;;4.82;2.60;;;13.70;99.90;;;;;;5043279;28;20017;-39
2023/07/31 05:21:38;;;;;;;4.15;2.35;;;13.80;99.90;;;;;;5043297;28;20196;-41
2023/07/31 05:24:04;;;;;;;3.05;2.20;;;13.90;99.90;;;;;;5040504;28;20025;-40
2023/07/31 05:26:30;;;;;;;5.47;2.80;;;14.00;99.90;;;;;;5045908;28;20059;-38
2023/07/31 05:28:55;;;;;;;2.80;2.53;;;14.00;99.90;;;;;;5044844;28;20072;-39
2023/07/31 05:31:22;;;;;;;3.63;2.80;;;14.10;99.90;;;;;;5041937;28;20047;-41
2023/07/31 05:33:49;;;;;;;4.72;2.50;;;14.10;99.90;;;;;;5042777;28;20060;-41
2023/07/31 05:36:15;;;;;;;3.28;2.35;;;14.20;99.90;;;;;;5040792;28;20033;-37
2023/07/31 05:38:42;;;;;;;2.63;2.40;;;14.30;99.90;;;;;;5046327;28;20043;-40
2023/07/31 05:41:08;;;;;;;2.97;2.55;;;14.40;99.90;;;;;;5036930;28;20052;-39
2023/07/31 05:43:34;;;;;;;4.80;2.40;;;14.50;99.90;;;;;;5040737;28;20028;-40
2023/07/31 05:45:59;;;;;;;2.58;2.08;;;14.60;99.90;;;;;;5036959;28;20037;-40
2023/07/31 05:48:25;;;;;;;3.95;2.40;;;14.70;99.90;;;;;;5041288;28;20108;-40
2023/07/31 05:50:50;;;;;;;2.72;2.13;;;14.70;99.90;;;;;;5041485;28;20044;-40
2023/07/31 05:53:16;;;;;;;3.90;2.20;;;14.80;99.90;;;;;;5043162;28;20381;-40
2023/07/31 05:55:41;;;;;;;4.22;2.63;;;14.90;99.90;;;;;;5038582;28;20041;-40
2023/07/31 05:58:07;;;;;;;2.80;2.00;;;15.00;99.90;;;;;;5037420;28;20033;-41
2023/07/31 06:00:33;;;;;;;3.75;2.47;;;15.10;99.90;;;;;;5040202;28;20397;-32
2023/07/31 06:02:58;;;;;;;3.33;2.75;;;15.10;99.90;;;;;;5036549;28;20052;-35
2023/07/31 06:05:24;;;;;;;2.83;2.13;;;15.20;99.90;;;;;;5040875;28;20617;-33
2023/07/31 06:07:50;;;;;;;2.42;2.05;;;15.30;99.90;;;;;;5024747;28;20033;-32
2023/07/31 06:10:15;;;;;;;6.55;2.20;;;15.40;99.90;;;;;;5038603;28;20086;-32
2023/07/31 06:12:41;;;;;;;3.22;2.42;;;15.40;99.90;;;;;;5043983;28;20377;-31
2023/07/31 06:15:07;;;;;;;3.63;2.05;;;15.50;99.90;;;;;;5039723;28;20364;-31
2023/07/31 06:17:33;;;;;;;3.85;2.20;;;15.50;99.90;;;;;;5040147;28;20032;-31
2023/07/31 06:19:58;;;;;;;2.40;2.20;;;15.60;99.90;;;;;;5040123;28;20036;-30
2023/07/31 06:22:24;;;;;;;5.57;2.53;;;15.80;99.90;;;;;;5040052;28;20474;-31
2023/07/31 06:24:49;;;;;;;3.88;2.00;;;15.90;99.90;;;;;;5041109;28;20017;-30
2023/07/31 06:27:15;;;;;;;4.13;2.20;;;16.10;99.90;;;;;;5039781;28;20486;-31
2023/07/31 06:29:42;;;;;;;3.83;2.03;;;16.30;99.90;;;;;;5012636;28;20104;-32
2023/07/31 06:32:08;;;;;;;2.85;2.17;;;16.50;99.90;;;;;;5014284;28;20168;-31
2023/07/31 06:34:33;;;;;;;3.17;2.28;;;16.80;99.90;;;;;;5023882;28;20117;-30
2023/07/31 06:36:59;;;;;;;3.75;2.10;;;17.00;99.90;;;;;;5024159;28;20041;-31
2023/07/31 06:39:24;;;;;;;4.63;2.40;;;17.20;99.90;;;;;;5019363;28;20038;-31
2023/07/31 06:41:50;;;;;;;3.17;1.80;;;17.30;99.90;;;;;;5025444;28;20080;-36
2023/07/31 06:44:16;;;;;;;4.22;1.90;;;17.20;99.90;;;;;;5025606;28;20030;-31
2023/07/31 06:46:42;;;;;;;3.10;1.90;;;17.30;99.90;;;;;;5020650;28;20023;-34
2023/07/31 06:49:08;;;;;;;2.20;1.88;;;17.30;99.90;;;;;;5019376;28;20100;-33
2023/07/31 06:51:35;;;;;;;4.35;2.15;;;17.40;99.90;;;;;;5021387;28;20101;-30
2023/07/31 06:54:01;;;;;;;3.87;1.80;;;17.40;99.90;;;;;;5025290;28;20096;-31
2023/07/31 06:56:27;;;;;;;4.80;1.92;;;17.40;99.90;;;;;;5019620;28;20745;-30
2023/07/31 06:58:53;;;;;;;2.40;1.92;;;17.50;99.90;;;;;;5020198;28;20367;-38
2023/07/31 07:01:18;;;;;;;3.55;2.08;;;17.60;99.90;;;;;;5011446;28;20038;-36
2023/07/31 07:03:44;;;;;;;5.32;2.33;;;17.90;99.90;;;;;;5023002;28;20377;-36
2023/07/31 07:06:09;;;;;;;3.15;1.80;;;17.90;99.90;;;;;;5026720;28;20688;-38
2023/07/31 07:08:35;;;;;;;2.30;1.80;;;17.80;99.90;;;;;;5025060;28;20104;-36
2023/07/31 07:11:01;;;;;;;2.35;1.90;;;17.80;99.90;;;;;;5030921;28;20033;-41
2023/07/31 07:13:26;;;;;;;2.10;1.55;;;17.80;99.90;;;;;;5023198;28;20526;-40
2023/07/31 07:15:52;;;;;;;4.38;2.00;;;17.90;99.90;;;;;;5018142;28;20026;-40
2023/07/31 07:18:18;;;;;;;2.40;1.55;;;18.00;99.90;;;;;;5023982;28;20049;-40
2023/07/31 07:20:50;;;;;;;3.05;1.80;;;18.10;99.90;;;;;;5025452;28;20029;-40
2023/07/31 07:23:15;;;;;;;1.55;1.45;;;18.20;99.90;;;;;;5024723;28;20033;-40
2023/07/31 07:25:42;;;;;;;2.42;1.80;;;18.40;99.90;;;;;;5029092;28;20788;-41
2023/07/31 07:28:08;;;;;;;2.22;1.98;;;18.50;99.90;;;;;;5025716;28;20045;-40
2023/07/31 07:30:33;;;;;;;3.78;1.50;;;18.60;99.90;;;;;;5043835;28;20040;-40
2023/07/31 07:32:59;;;;;;;2.58;1.60;;;18.60;99.90;;;;;;5052019;28;20436;-41
2023/07/31 07:35:24;;;;;;;2.50;1.73;;;18.60;99.90;;;;;;5040605;28;20029;-38
2023/07/31 07:37:50;;;;;;;4.22;2.28;;;18.50;99.90;;;;;;5047371;28;20024;-40
2023/07/31 07:40:16;;;;;;;3.90;1.88;;;18.50;99.90;;;;;;5040676;28;20061;-41
2023/07/31 07:42:41;;;;;;;2.85;1.70;;;18.40;99.90;;;;;;5046359;28;20036;-41
2023/07/31 07:45:08;;;;;;;2.13;1.73;;;18.40;99.90;;;;;;5044275;28;20026;-36
2023/07/31 07:47:33;;;;;;;3.80;1.88;;;18.30;99.90;;;;;;5044856;28;20096;-40
2023/07/31 07:49:59;;;;;;;3.30;2.10;;;18.30;99.90;;;;;;5048997;28;20025;-41
2023/07/31 07:52:25;;;;;;;3.88;1.65;;;18.30;99.90;;;;;;5041106;28;20559;-40
2023/07/31 07:54:50;;;;;;;3.05;1.70;;;18.30;99.90;;;;;;5041530;28;20039;-41
2023/07/31 07:57:16;;;;;;;2.63;1.70;;;18.30;99.90;;;;;;5044183;28;20382;-41
2023/07/31 07:59:42;;;;;;;2.10;1.48;;;18.30;99.90;;;;;;5044457;28;20030;-41
2023/07/31 08:02:08;;;;;;;2.45;1.50;;;18.30;99.90;;;;;;5033321;28;20036;-41
2023/07/31 08:04:33;;;;;;;2.08;1.60;;;18.30;99.90;;;;;;5049118;28;20033;-38
2023/07/31 08:06:59;;;;;;;3.53;1.80;;;18.40;99.90;;;;;;5042354;28;20030;-41
2023/07/31 08:09:24;;;;;;;2.95;1.73;;;18.30;99.90;;;;;;5040128;28;20037;-32
2023/07/31 08:11:50;;;;;;;2.70;1.83;;;18.30;99.90;;;;;;5044930;28;20144;-32
2023/07/31 08:14:16;;;;;;;2.03;1.52;;;18.30;99.90;;;;;;5046588;28;20021;-32
2023/07/31 08:16:42;;;;;;;3.58;1.80;;;18.40;99.90;;;;;;5045375;28;20457;-34
2023/07/31 08:19:07;;;;;;;2.45;1.80;;;18.50;99.90;;;;;;5045777;28;20055;-40
2023/07/31 08:21:33;;;;;;;4.30;1.67;;;18.60;99.90;;;;;;5045180;28;20040;-41
2023/07/31 08:23:59;;;;;;;3.85;1.83;;;18.60;99.90;;;;;;5042298;28;20021;-38
2023/07/31 08:26:24;;;;;;;3.67;1.60;;;18.50;99.90;;;;;;5042598;28;20356;-39
2023/07/31 08:28:50;;;;;;;2.78;1.70;;;18.60;99.90;;;;;;5044189;28;20076;-39
2023/07/31 08:31:15;;;;;;;3.40;1.80;;;18.70;99.90;;;;;;5035634;28;20363;-41
2023/07/31 08:33:41;;;;;;;2.95;1.50;;;18.80;99.90;;;;;;5026438;28;20355;-39
2023/07/31 08:36:07;;;;;;;3.10;1.48;;;18.90;99.90;;;;;;5022607;28;20029;-42
2023/07/31 08:38:33;;;;;;;4.15;1.50;;;19.20;99.90;;;;;;5028590;28;20494;-41
2023/07/31 08:40:58;;;;;;;2.08;1.42;;;19.50;99.90;;;;;;5030691;28;20385;-40
2023/07/31 08:43:26;;;;;;;5.07;1.90;;;19.60;99.90;;;;;;5025587;28;20026;-42
2023/07/31 08:45:52;;;;;;;3.92;1.65;;;19.70;99.90;;;;;;5025997;28;20025;-41
2023/07/31 08:48:20;;;;;;;3.67;1.60;;;19.70;99.90;;;;;;5006237;28;20607;-37
2023/07/31 08:50:46;;;;;;;2.88;1.70;;;19.60;99.90;;;;;;5024211;28;20029;-40
2023/07/31 08:53:12;;;;;;;2.85;1.35;;;19.50;99.90;;;;;;5040237;28;20067;-40
2023/07/31 08:55:38;;;;;;;3.45;1.75;;;19.30;99.90;;;;;;5021636;28;20022;-42
2023/07/31 08:58:04;;;;;;;3.10;1.55;;;19.20;99.90;;;;;;5014093;28;20029;-35
2023/07/31 09:00:32;;;;;;;3.53;1.85;;;19.10;99.90;;;;;;5006200;28;20478;-40
2023/07/31 09:03:02;;;;;;;2.83;1.55;;;19.10;99.90;;;;;;5008872;28;20120;-36
2023/07/31 09:05:30;;;;;;;3.00;1.60;;;19.10;99.90;;;;;;5018560;28;20029;-41
2023/07/31 09:07:57;;;;;;;2.70;1.38;;;19.20;99.90;;;;;;5025068;28;20029;-40
2023/07/31 09:10:23;;;;;;;3.55;1.50;;;19.30;99.90;;;;;;5023212;28;20029;-41
2023/07/31 09:12:51;;;;;;;3.40;1.42;;;19.30;99.90;;;;;;5022457;28;20116;-38
2023/07/31 09:15:17;;;;;;;3.03;1.77;;;19.50;99.90;;;;;;5009226;28;20087;-40
2023/07/31 09:17:43;;;;;;;3.80;1.60;;;19.50;99.90;;;;;;5022836;28;20099;-39
2023/07/31 09:20:19;;;;;;;3.10;1.50;;;19.70;99.90;;;;;;5026119;28;20025;-41
2023/07/31 09:22:46;;;;;;;3.00;1.65;;;19.80;99.90;;;;;;5018253;28;20069;-41
2023/07/31 09:25:16;;;;;;;3.92;1.70;;;19.80;99.90;;;;;;5010557;28;20025;-40
2023/07/31 09:28:01;;;;;;;2.47;1.60;;;20.00;99.90;;;;;;5024692;28;20057;-42
2023/07/31 09:30:27;;;;;;;4.20;1.60;;;19.90;99.90;;;;;;4997347;28;20487;-31
2023/07/31 09:33:02;;;;;;;2.95;1.20;;;19.90;99.90;;;;;;5037151;28;20036;-30
2023/07/31 09:35:30;;;;;;;2.75;1.60;;;19.90;99.90;;;;;;5042366;28;20092;-32
2023/07/31 09:37:59;;;;;;;4.50;2.00;;;19.80;99.90;;;;;;5044675;28;20472;-30
2023/07/31 09:40:29;;;;;;;5.85;2.00;;;19.90;99.90;;;;;;5042551;28;20038;-31
2023/07/31 09:43:03;;;;;;;1.92;1.40;;;20.10;99.90;;;;;;5043605;28;20025;-31
2023/07/31 09:45:29;;;;;;;1.88;1.50;;;20.30;99.90;;;;;;5039653;28;20034;-30
2023/07/31 09:47:56;;;;;;;2.75;1.67;;;20.60;99.90;;;;;;5037883;28;20087;-31
2023/07/31 09:50:24;;;;;;;3.15;1.58;;;20.80;99.90;;;;;;5043967;28;20041;-35
2023/07/31 09:52:53;;;;;;;2.05;1.40;;;21.10;99.90;;;;;;5044693;28;20466;-32
2023/07/31 09:55:19;;;;;;;2.63;1.70;;;21.50;99.90;;;;;;5037701;28;20033;-34
2023/07/31 09:57:47;;;;;;;4.03;1.70;;;21.70;99.90;;;;;;5042265;28;20032;-34
2023/07/31 10:00:18;;;;;;;3.10;1.58;;;21.60;99.90;;;;;;5041354;28;20780;-30
2023/07/31 10:02:47;;;;;;;4.40;1.35;;;21.50;99.90;;;;;;5040059;28;20029;-32
2023/07/31 10:05:16;;;;;;;3.13;1.67;;;21.50;99.90;;;;;;5032638;28;20022;-32
2023/07/31 10:07:55;;;;;;;3.40;1.85;;;21.40;99.90;;;;;;5039137;28;20447;-29
2023/07/31 10:10:22;;;;;;;2.38;1.70;;;21.50;99.90;;;;;;5040667;28;20029;-30
2023/07/31 10:12:52;;;;;;;3.88;1.83;;;21.70;99.90;;;;;;5043295;28;20052;-30
2023/07/31 10:15:19;;;;;;;2.05;1.60;;;21.80;99.90;;;;;;5042589;28;20535;-30
2023/07/31 10:17:47;;;;;;;2.25;1.45;;;21.60;99.90;;;;;;5040248;28;20068;-33
2023/07/31 10:20:13;;;;;;;;;;;21.50;99.90;;;;;;5035966;28;20029;-30
2023/07/31 10:22:40;;;;;;;4.15;1.95;;;21.40;99.90;;;;;;5031526;28;19919;-31
2023/07/31 10:25:08;;;;;;;1.60;1.48;;;21.40;99.90;;;;;;5042133;28;20041;-31
2023/07/31 10:27:36;;;;;;;2.22;1.33;;;21.60;99.90;;;;;;5045832;28;20040;-30
2023/07/31 10:30:04;;;;;;;1.88;1.50;;;21.80;99.90;;;;;;5038660;28;20029;-39
2023/07/31 10:32:30;;;;;;;4.07;1.75;;;22.00;99.90;;;;;;5044131;28;20037;-41
2023/07/31 10:34:57;;;;;;;2.65;1.55;;;22.10;99.90;;;;;;5040111;28;20095;-39
2023/07/31 10:37:30;;;;;;;2.08;1.60;;;22.50;99.90;;;;;;5040828;28;20029;-38
2023/07/31 10:39:57;;;;;;;2.55;1.40;;;22.60;99.90;;;;;;5037952;28;20037;-40
2023/07/31 10:42:34;;;;;;;2.28;1.70;;;22.70;99.90;;;;;;5037696;28;20056;-38
2023/07/31 10:45:10;;;;;;;3.22;1.70;;;22.70;99.90;;;;;;5045510;28;20064;-36
2023/07/31 10:47:42;;;;;;;2.80;1.40;;;22.70;99.90;;;;;;5037877;28;20493;-38
2023/07/31 10:50:21;;;;;;;4.18;1.65;;;22.60;99.90;;;;;;5042364;28;20075;-40
2023/07/31 10:52:51;;;;;;;3.35;1.73;;;22.90;99.90;;;;;;5040217;28;20351;-40
2023/07/31 10:55:29;;;;;;;2.28;1.48;;;22.80;99.90;;;;;;5039491;28;20064;-40
2023/07/31 10:57:56;;;;;;;2.45;1.40;;;22.90;99.90;;;;;;5040064;28;20029;-40
2023/07/31 11:00:29;;;;;;;3.63;2.20;;;22.90;99.90;;;;;;5042389;28;20040;-39
2023/07/31 11:03:13;;;;;;;1.48;1.30;;;22.80;99.90;;;;;;5041159;28;20138;-39
2023/07/31 11:05:55;;;;;;;2.33;1.60;;;23.20;99.90;;;;;;5040277;28;20504;-41
2023/07/31 11:08:27;;;;;;;3.67;1.58;;;23.10;99.90;;;;;;5036892;28;20110;-40
2023/07/31 11:11:02;;;;;;;2.65;1.80;;;23.10;99.90;;;;;;5047951;28;20032;-39
2023/07/31 11:13:32;;;;;;;4.32;1.70;;;23.10;99.90;;;;;;5038941;28;20021;-39
2023/07/31 11:15:58;;;;;;;3.60;1.30;;;23.30;99.90;;;;;;5024341;28;20029;-41
2023/07/31 11:18:25;;;;;;;4.80;1.77;;;23.30;99.90;;;;;;5042140;28;20687;-40
2023/07/31 11:20:51;;;;;;;2.92;1.38;;;23.50;99.90;;;;;;5043371;28;20500;-41
2023/07/31 11:23:17;;;;;;;3.50;1.60;;;23.50;99.90;;;;;;5025984;28;20029;-40
2023/07/31 11:25:43;;;;;;;1.38;1.23;;;23.70;99.90;;;;;;5046577;28;20032;-40
2023/07/31 11:28:13;;;;;;;2.60;1.60;;;23.50;99.90;;;;;;5039885;28;20494;-40
2023/07/31 11:30:43;;;;;;;2.15;1.45;;;23.60;99.90;;;;;;5041469;28;20040;-40
2023/07/31 11:33:11;;;;;;;3.05;1.50;;;23.70;99.90;;;;;;5042684;28;20502;-40
2023/07/31 11:35:48;;;;;;;3.90;1.50;;;23.60;99.90;;;;;;5043677;28;20031;-40
2023/07/31 11:38:31;;;;;;;3.65;1.73;;;23.80;99.90;;;;;;5042969;28;20401;-40
2023/07/31 11:40:59;;;;;;;2.65;1.60;;;23.90;99.90;;;;;;5046763;28;20057;-30
2023/07/31 11:43:26;;;;;;;2.00;1.80;;;23.80;99.90;;;;;;5043790;28;20029;-31
2023/07/31 11:45:56;;;;;;;3.38;1.58;;;23.50;99.90;;;;;;5040443;28;20740;-30
2023/07/31 11:48:33;;;;;;;6.07;1.95;;;23.10;99.90;;;;;;5042341;28;20460;-36
2023/07/31 11:51:00;;;;;;;1.55;1.42;;;23.20;99.90;;;;;;5037037;28;20116;-32
2023/07/31 11:53:38;;;;;;;3.45;1.55;;;23.30;99.90;;;;;;5044893;28;20021;-31
2023/07/31 11:56:06;;;;;;;3.78;1.88;;;22.80;99.90;;;;;;5041867;28;20542;-32
2023/07/31 11:58:34;;;;;;;2.50;1.58;;;22.80;99.90;;;;;;5024878;28;20037;-32
2023/07/31 12:01:00;;;;;;;3.30;1.48;;;23.00;99.90;;;;;;5042872;28;20486;-32
2023/07/31 12:03:26;;;;;;;4.03;2.00;;;23.00;99.90;;;;;;5042753;28;20032;-33
2023/07/31 12:05:53;;;;;;;2.88;1.60;;;23.10;99.90;;;;;;5041164;28;20048;-32
2023/07/31 12:08:22;;;;;;;5.20;1.60;;;23.60;99.90;;;;;;5042592;28;20059;-31
2023/07/31 12:10:50;;;;;;;2.58;1.67;;;23.70;99.90;;;;;;5041097;28;20428;-32
2023/07/31 12:13:26;;;;;;;1.83;1.40;;;23.90;99.90;;;;;;5044496;28;20440;-31
2023/07/31 12:15:57;;;;;;;2.22;1.50;;;23.90;99.90;;;;;;5047071;28;20347;-32
2023/07/31 12:18:24;;;;;;;4.65;1.45;;;24.20;99.90;;;;;;5044255;28;20032;-32
2023/07/31 12:20:58;;;;;;;2.30;1.43;;;24.50;99.90;;;;;;5045460;28;20147;-32
2023/07/31 12:23:29;;;;;;;3.38;2.10;;;24.70;99.90;;;;;;5039144;28;20064;-32
2023/07/31 12:26:13;;;;;;;1.88;1.30;;;24.90;99.90;;;;;;5041689;28;20393;-36
2023/07/31 12:28:45;;;;;;;1.58;1.48;;;24.40;99.90;;;;;;5042399;28;20041;-32
2023/07/31 12:31:22;;;;;;;2.40;1.50;;;24.20;99.90;;;;;;5044885;28;20060;-32
2023/07/31 12:33:49;;;;;;;2.00;1.80;;;23.80;99.90;;;;;;5042094;28;20029;-33
2023/07/31 12:36:18;;;;;;;2.88;1.60;;;23.70;99.90;;;;;;5058363;28;20043;-33
2023/07/31 12:38:44;;;;;;;2.47;1.58;;;23.50;99.90;;;;;;5042128;28;20033;-33
2023/07/31 12:41:10;;;;;;;2.47;1.35;;;23.30;99.90;;;;;;5030990;28;20040;-34
2023/07/31 12:43:37;;;;;;;2.03;1.60;;;23.10;99.90;;;;;;5043357;28;20029;-38
2023/07/31 12:46:03;;;;;;;3.35;1.92;;;23.00;99.90;;;;;;5043807;28;20028;-33
2023/07/31 12:48:29;;;;;;;1.98;1.50;;;23.00;99.90;;;;;;5044453;28;20021;-41